SKBG

Palonegro Airport

Bucaramanga, Colombia
TAF SKBG 181700Z 1818/1918 31003KT 9999 BKN015 BECMG 1819/1821 32006KT TEMPO 1821/1902 DZ SCT017CB SCT090 TEMPO 1909/1913 18010KT 8000 TX28/1818Z TN20/1911Z
Issued Valid From Valid To
Jul-18 @ 17:00 UTC
(6 hours ago)
Jul-18 @ 18:00 UTC
(5 hours ago)
Jul-19 @ 18:00 UTC
(in 19 hours)
Expired Click to View Jul-18 @ 18:00 to Jul-18 @ 19:00
TAF SKBG 181700Z 1818/1918 31003KT 9999 BKN015
Wind Visibility Clouds
310° at 3 knots 10,000+ meters
  • Broken at 1,500' AGL
Becoming Jul-18 @ 19:00 to Jul-19 @ 18:00
BECMG 1819/1821 32006KT
Wind Visibility Clouds
320° at 6 knots 10,000+ meters
  • Broken at 1,500' AGL
Temporary Jul-18 @ 21:00 to Jul-19 @ 02:00
TEMPO 1821/1902 DZ SCT017CB SCT090
Clouds Conditions
  • Scattered at 1,700' AGL
  • Scattered at 9,000' AGL
  • Drizzle
Temporary Jul-19 @ 09:00 to Jul-19 @ 13:00
TEMPO 1909/1913 18010KT 8000 TX28/1818Z TN20/1911Z
Wind Visibility
180° at 10 knots 7,998 meters
TAF SKBG 181700Z 1818/1918 31003KT 9999 BKN015 BECMG 1819/1821 32006KT TEMPO 1821/1902 DZ SCT017CB SCT090 TEMPO 1909/1913 18010KT 8000 TX28/1818Z TN20/1911Z
Issued Jul-18 @ 17:00 UTC
(6 hours ago)
Valid From Jul-18 @ 18:00 UTC
(5 hours ago)
Valid To Jul-19 @ 18:00 UTC
(in 19 hours)
Jul-18 @ 18:00 - Jul-18 @ 19:00
Wind Visibility
310° at 3 knots 10,000+ meters
Clouds
  • Broken at 1,500' AGL
Becoming Jul-18 @ 19:00 - Jul-19 @ 18:00
Wind Visibility
320° at 6 knots 10,000+ meters
Clouds
  • Broken at 1,500' AGL
Temporary Jul-18 @ 21:00 - Jul-19 @ 02:00
Clouds
  • Scattered at 1,700' AGL
  • Scattered at 9,000' AGL
Conditions
  • Drizzle
Temporary Jul-19 @ 09:00 - Jul-19 @ 13:00
Wind Visibility
180° at 10 knots 7,998 meters